Latest Weather Observations for Marble Bar

IDW60801

Issued at 6:35 pm WST Saturday 19 April 2014 (issued every 30 minutes, with the page automatically refreshed every 10 minutes)

About weather observations | Map of weather stations | Latest weather observations for WA | Other Formats
Station Details ID: 004106 Name: MARBLE BAR Lat: -21.18 Lon: 119.75 Height: 182.3 m
Data from the previous 72 hours. | See also: Recent months at Marble Bar
Date/Time
WST
Temp
°C
App
Temp
°C
Dew
Point
Rel
Hum
%
Delta-T
°C
Wind Press
QNH
hPa
Press
MSL
hPa
Rain
since 9 am
mm
Dir
 
Spd
km/h
Gust
km/h
Spd
kts
Gust
kts
19/06:30pm 29.6 27.3 2.8 18 13.5 E 4 6 2 3 1012.1 - 0.0
19/06:00pm 31.3 28.6 2.5 16 14.6 ESE 6 6 3 3 1011.8 1010.6 0.0
19/05:30pm 33.3 30.4 1.2 13 16.1 E 6 9 3 5 1011.5 - 0.0
19/05:00pm 35.3 32.4 -0.9 10 17.8 SE 4 9 2 5 1011.4 1010.2 0.0
19/04:30pm 35.7 33.3 -0.6 10 18.0 NNW 2 4 1 2 1011.2 - 0.0
19/04:00pm 35.8 33.0 -0.5 10 18.0 ESE 4 9 2 5 1011.1 1009.9 0.0
19/03:30pm 35.8 32.6 -0.5 10 18.0 E 6 13 3 7 1011.1 - 0.0
19/03:00pm 36.0 32.6 -1.8 9 18.4 ESE 6 13 3 7 1011.1 1009.9 0.0
19/02:30pm 35.7 32.5 -0.6 10 18.0 E 6 15 3 8 1011.4 - 0.0
19/02:00pm 36.1 32.0 -0.3 10 18.2 ESE 11 19 6 10 1011.6 1010.4 0.0
19/01:30pm 35.1 32.4 0.2 11 17.4 E 4 11 2 6 1012.1 - 0.0
19/01:00pm 36.0 33.2 -0.4 10 18.1 E 4 7 2 4 1012.6 1011.3 0.0
19/12:30pm 35.8 31.8 0.8 11 17.7 E 11 20 6 11 1013.1 - 0.0
19/12:00pm 35.0 31.3 0.2 11 17.4 E 9 15 5 8 1013.6 1012.4 0.0
19/11:30am 35.0 30.8 1.4 12 17.1 SE 13 22 7 12 1014.2 - 0.0
19/11:00am 35.0 31.3 0.2 11 17.4 E 9 19 5 10 1014.7 1013.5 0.0
19/10:30am 33.8 30.8 0.5 12 16.6 ENE 6 15 3 8 1015.3 - 0.0
19/10:00am 33.3 29.8 1.2 13 16.1 ENE 9 15 5 8 1015.7 1014.5 0.0
19/09:30am 32.1 28.2 1.3 14 15.4 E 11 19 6 10 1016.2 - 0.0
19/09:00am 31.0 26.8 1.4 15 14.7 ESE 13 17 7 9 1016.2 1015.0 0.0
19/08:30am 29.8 25.5 1.3 16 14.0 ESE 13 19 7 10 1016.1 - 0.0
19/08:00am 26.9 25.6 5.8 26 11.0 SSE 2 7 1 4 1016.2 1015.0 0.0
19/07:30am 23.7 23.0 6.9 34 8.8 CALM 0 0 0 0 1016.2 - 0.0
19/07:00am 20.9 19.2 6.1 38 7.5 SSE 4 6 2 3 1015.9 1014.7 0.0
19/06:30am 17.8 16.1 7.5 51 5.2 SSE 6 6 3 3 1015.6 - 0.0
19/06:00am 18.3 16.9 7.1 48 5.7 S 4 6 2 3 1015.4 1014.2 0.0
19/05:30am 18.4 17.3 6.9 47 5.8 S 2 4 1 2 1015.2 - 0.0
19/05:00am 19.8 18.6 6.5 42 6.7 S 2 7 1 4 1015.2 1014.0 0.0
19/04:30am 19.7 18.3 7.1 44 6.4 SSE 4 6 2 3 1015.0 - 0.0
19/04:00am 20.4 19.6 6.7 41 7.0 CALM 0 4 0 2 1015.1 1013.9 0.0
19/03:30am 19.7 18.0 6.1 41 6.8 S 4 9 2 5 1015.2 - 0.0
19/03:00am 19.4 17.7 5.8 41 6.8 SSE 4 4 2 2 1015.2 1014.0 0.0
19/02:30am 20.3 18.4 5.1 37 7.5 SSE 4 6 2 3 1015.4 - 0.0
19/02:00am 20.8 18.9 4.8 35 7.9 SSE 4 4 2 2 1015.4 1014.2 0.0
19/01:30am 21.0 19.1 5.0 35 7.9 SE 4 6 2 3 1015.5 - 0.0
19/01:00am 20.6 18.7 5.0 36 7.7 SSE 4 6 2 3 1015.6 1014.4 0.0
19/12:30am 21.0 19.1 5.0 35 7.9 SE 4 6 2 3 1015.9 - 0.0
19/12:00am 21.5 19.6 5.0 34 8.2 SSE 4 4 2 2 1016.0 1014.8 0.0
 
Date/Time
WST
Temp
°C
App
Temp
°C
Dew
Point
Rel
Hum
%
Delta-T
°C
Wind Press
QNH
hPa
Press
MSL
hPa
Rain
since 9 am
mm
Dir
 
Spd
km/h
Gust
km/h
Spd
kts
Gust
kts
18/11:30pm 22.9 21.3 4.4 30 9.2 SSE 2 4 1 2 1016.1 - 0.0
18/11:00pm 23.8 21.8 4.2 28 9.7 S 4 6 2 3 1016.2 1015.0 0.0
18/10:30pm 25.0 22.8 3.6 25 10.6 NNE 4 9 2 5 1016.4 - 0.0
18/10:00pm 26.4 23.3 3.6 23 11.4 N 9 15 5 8 1016.3 1015.1 0.0
18/09:30pm 26.3 23.2 3.5 23 11.4 ESE 9 11 5 6 1016.1 - 0.0
18/09:00pm 27.2 24.1 3.7 22 11.8 ESE 9 13 5 7 1016.0 1014.8 0.0
18/08:30pm 27.1 23.6 3.6 22 11.8 SE 11 13 6 7 1015.8 - 0.0
18/08:00pm 27.4 24.3 3.8 22 11.9 SE 9 11 5 6 1015.5 1014.3 0.0
18/07:30pm 27.9 24.8 3.6 21 12.3 SE 9 11 5 6 1015.1 - 0.0
18/07:00pm 27.7 25.5 3.4 21 12.2 SE 4 7 2 4 1014.7 1013.5 0.0
18/06:30pm 29.7 27.4 2.9 18 13.5 E 4 7 2 4 1014.3 - 0.0
18/06:00pm 31.2 28.5 2.4 16 14.6 ESE 6 9 3 5 1014.0 1012.8 0.0
18/05:30pm 33.1 30.1 2.1 14 15.8 ESE 7 11 4 6 1013.7 - 0.0
18/05:00pm 34.5 31.0 1.0 12 16.9 ESE 9 17 5 9 1013.5 1012.3 0.0
18/04:30pm 34.9 30.3 1.3 12 17.1 E 15 20 8 11 1013.3 - 0.0
18/04:00pm 35.4 31.8 0.5 11 17.6 E 9 19 5 10 1013.0 1011.7 0.0
18/03:30pm 35.5 30.8 0.6 11 17.6 E 15 22 8 12 1013.0 - 0.0
18/03:00pm 36.1 31.4 1.0 11 17.9 E 15 26 8 14 1013.1 1011.8 0.0
18/02:30pm 35.6 29.5 0.6 11 17.7 E 22 28 12 15 1013.2 - 0.0
18/02:00pm 35.4 30.8 1.7 12 17.3 ESE 15 32 8 17 1013.3 1012.1 0.0
18/01:30pm 35.9 32.2 2.1 12 17.5 SSE 11 24 6 13 1013.6 - 0.0
18/01:00pm 35.0 29.6 2.5 13 16.8 E 20 33 11 18 1013.9 1012.7 0.0
18/12:30pm 35.2 30.6 1.5 12 17.2 ENE 15 30 8 16 1014.3 - 0.0
18/12:00pm 34.8 30.3 2.3 13 16.8 E 15 28 8 15 1015.0 1013.8 0.0
18/11:30am 34.4 29.3 3.1 14 16.3 E 19 30 10 16 1015.4 - 0.0
18/11:00am 34.1 29.0 2.8 14 16.2 E 19 30 10 16 1015.8 1014.6 0.0
18/10:30am 33.0 26.5 2.9 15 15.5 E 26 39 14 21 1016.2 - 0.0
18/10:00am 32.7 27.1 3.6 16 15.1 E 22 33 12 18 1016.5 1015.3 0.0
18/09:30am 31.4 25.4 3.4 17 14.4 E 24 35 13 19 1016.9 - 0.0
18/09:00am 30.2 25.7 4.0 19 13.5 E 17 24 9 13 1017.0 1015.8 0.0
18/08:30am 28.7 24.4 3.5 20 12.8 E 15 20 8 11 1017.0 - 0.0
18/08:00am 26.5 23.4 3.7 23 11.4 SE 9 13 5 7 1017.1 1015.9 0.0
18/07:30am 23.4 22.3 4.9 30 9.3 CALM 0 0 0 0 1017.0 - 0.0
18/07:00am 20.6 19.2 5.4 37 7.6 NE 2 6 1 3 1016.8 1015.6 0.0
18/06:30am 19.0 17.4 4.4 38 7.1 NW 2 7 1 4 1016.5 - 0.0
18/06:00am 17.6 16.5 4.9 43 6.1 CALM 0 4 0 2 1016.0 1014.8 0.0
18/05:30am 18.7 17.1 4.5 39 6.9 SSE 2 4 1 2 1015.8 - 0.0
18/05:00am 18.4 16.9 4.9 41 6.5 S 2 6 1 3 1015.8 1014.6 0.0
18/04:30am 19.9 18.3 4.4 36 7.5 ENE 2 7 1 4 1015.7 - 0.0
18/04:00am 19.8 18.5 4.3 36 7.5 CALM 0 0 0 0 1015.5 1014.3 0.0
18/03:30am 19.8 17.8 4.3 36 7.5 S 4 6 2 3 1015.4 - 0.0
18/03:00am 20.7 19.1 4.3 34 8.0 W 2 4 1 2 1015.6 1014.4 0.0
18/02:30am 21.6 19.2 4.2 32 8.5 NNE 6 15 3 8 1015.7 - 0.0
18/02:00am 21.1 19.4 4.2 33 8.2 SSW 2 4 1 2 1015.4 1014.2 0.0
18/01:30am 21.8 20.5 3.9 31 8.7 CALM 0 4 0 2 1015.7 - 0.0
18/01:00am 22.2 19.7 3.8 30 9.0 SSW 6 7 3 4 1015.7 1014.5 0.0
18/12:30am 24.5 20.9 3.2 25 10.5 SE 11 15 6 8 1015.9 - 0.0
18/12:00am 25.4 21.1 3.4 24 10.9 SE 15 19 8 10 1016.1 1014.9 0.0
 
Date/Time
WST
Temp
°C
App
Temp
°C
Dew
Point
Rel
Hum
%
Delta-T
°C
Wind Press
QNH
hPa
Press
MSL
hPa
Rain
since 9 am
mm
Dir
 
Spd
km/h
Gust
km/h
Spd
kts
Gust
kts
17/11:30pm 24.6 21.5 3.8 26 10.3 ESE 9 13 5 7 1016.1 - 0.0
17/11:00pm 25.5 21.6 3.5 24 10.9 SE 13 15 7 8 1016.1 1014.9 0.0
17/10:30pm 25.0 22.4 4.2 26 10.4 SE 7 9 4 5 1016.0 - 0.0
17/10:00pm 25.5 22.5 4.0 25 10.8 ESE 9 11 5 6 1016.1 1014.9 0.0
17/09:30pm 26.0 22.6 3.9 24 11.1 SE 11 15 6 8 1016.0 - 0.0
17/09:00pm 26.3 22.8 3.5 23 11.4 SE 11 15 6 8 1015.9 1014.7 0.0
17/08:30pm 27.0 23.1 3.5 22 11.8 SE 13 15 7 8 1015.8 - 0.0
17/08:00pm 27.6 24.1 3.3 21 12.2 SE 11 13 6 7 1015.6 1014.4 0.0
17/07:30pm 27.1 23.7 4.2 23 11.6 SE 11 13 6 7 1015.3 - 0.0
17/07:00pm 27.5 24.5 3.9 22 12.0 SE 9 13 5 7 1015.1 1013.9 0.0
17/06:30pm 29.8 27.0 2.9 18 13.6 E 7 11 4 6 1014.7 - 0.0
17/06:00pm 30.9 27.9 2.2 16 14.4 E 7 11 4 6 1014.4 1013.2 0.0
17/05:30pm 32.7 29.3 1.7 14 15.6 E 9 15 5 8 1014.0 - 0.0
17/05:00pm 33.8 30.0 1.6 13 16.3 E 11 17 6 9 1013.6 1012.4 0.0
17/04:30pm 34.2 30.0 1.9 13 16.5 ESE 13 24 7 13 1013.4 - 0.0
17/04:00pm 34.5 30.2 1.0 12 16.9 E 13 22 7 12 1013.2 1012.0 0.0
17/03:30pm 34.6 30.7 1.1 12 16.9 ESE 11 20 6 11 1013.1 - 0.0
17/03:00pm 34.9 29.9 1.3 12 17.1 ESE 17 26 9 14 1013.3 1012.1 0.0
17/02:30pm 34.5 29.8 1.0 12 16.9 E 15 26 8 14 1013.4 - 0.0
17/02:00pm 34.4 30.5 0.9 12 16.9 ENE 11 20 6 11 1013.5 1012.3 0.0
17/01:30pm 34.2 30.4 1.9 13 16.5 E 11 19 6 10 1013.8 - 0.0
17/01:00pm 34.2 28.9 1.9 13 16.5 E 19 26 10 14 1014.3 1013.1 0.0
17/12:30pm 33.7 28.7 1.5 13 16.3 ESE 17 26 9 14 1014.7 - 0.0
17/12:00pm 33.7 28.5 2.5 14 16.0 E 19 28 10 15 1015.4 1014.2 0.0
17/11:30am 33.0 28.5 2.0 14 15.7 E 15 28 8 15 1016.1 - 0.0
17/11:00am 33.1 27.8 3.0 15 15.5 E 20 28 11 15 1016.5 1015.3 0.0
17/10:30am 32.4 27.2 3.4 16 15.0 E 20 30 11 16 1016.8 - 0.0
17/10:00am 31.4 25.8 3.4 17 14.4 E 22 33 12 18 1017.0 1015.8 0.0
17/09:30am 30.6 25.0 3.6 18 13.9 E 22 32 12 17 1017.2 - 0.0
17/09:00am 29.2 25.0 4.0 20 12.9 E 15 22 8 12 1017.3 1016.1 0.0
17/08:30am 27.8 24.8 4.2 22 12.0 E 9 17 5 9 1017.2 - 0.0
17/08:00am 25.9 23.5 4.4 25 10.9 SE 6 11 3 6 1017.2 1016.0 0.0
17/07:30am 22.5 21.5 5.4 33 8.6 CALM 0 0 0 0 1017.0 - 0.0
17/07:00am 19.8 18.8 5.8 40 7.0 CALM 0 0 0 0 1016.8 1015.6 0.0
17/06:30am 17.6 16.0 4.6 42 6.2 WNW 2 4 1 2 1016.4 - 0.0
17/06:00am 18.5 16.8 3.9 38 6.9 SSE 2 6 1 3 1016.2 1015.0 0.0
17/05:30am 18.3 16.2 3.8 38 6.9 S 4 6 2 3 1015.8 - 0.0
17/05:00am 18.2 17.0 4.4 40 6.6 CALM 0 4 0 2 1015.6 1014.4 0.0
17/04:30am 19.4 17.6 3.6 35 7.5 S 2 4 1 2 1015.4 - 0.0
17/04:00am 19.6 17.8 3.3 34 7.7 SSW 2 6 1 3 1015.1 1013.9 0.0
17/03:30am 20.4 18.9 3.2 32 8.2 CALM 0 4 0 2 1015.0 - 0.0
17/03:00am 20.4 18.2 3.2 32 8.2 SE 4 7 2 4 1014.9 1013.7 0.0
17/02:30am 21.8 18.5 2.5 28 9.2 SE 9 11 5 6 1015.0 - 0.0
17/02:00am 22.6 19.0 2.7 27 9.5 SE 11 13 6 7 1015.1 1013.9 0.0
17/01:30am 23.7 19.6 2.5 25 10.2 SE 13 15 7 8 1015.2 - 0.0
17/01:00am 24.5 20.5 2.6 24 10.6 SE 13 17 7 9 1015.3 1014.1 0.0
17/12:30am 24.7 19.8 2.2 23 10.9 SE 17 20 9 11 1015.4 - 0.0
17/12:00am 24.1 20.0 2.3 24 10.5 SE 13 17 7 9 1015.7 1014.5 0.0
 
Date/Time
WST
Temp
°C
App
Temp
°C
Dew
Point
Rel
Hum
%
Delta-T
°C
Wind Press
QNH
hPa
Press
MSL
hPa
Rain
since 9 am
mm
Dir
 
Spd
km/h
Gust
km/h
Spd
kts
Gust
kts
16/11:30pm 24.5 20.4 2.0 23 10.8 SE 13 17 7 9 1015.8 - 0.0
16/11:00pm 24.8 20.2 1.7 22 11.0 SE 15 19 8 10 1015.9 1014.7 0.0
16/10:30pm 24.8 20.7 2.3 23 10.9 SE 13 19 7 10 1015.8 - 0.0
16/10:00pm 25.0 20.8 1.8 22 11.1 SE 13 17 7 9 1015.8 1014.6 0.0
16/09:30pm 24.7 21.7 2.2 23 10.9 ESE 7 17 4 9 1015.8 - 0.0
16/09:00pm 25.3 21.6 2.1 22 11.2 ESE 11 17 6 9 1015.6 1014.4 0.0
16/08:30pm 25.9 22.1 1.9 21 11.6 SE 11 15 6 8 1015.2 - 0.0
16/08:00pm 26.1 22.4 2.1 21 11.7 SE 11 15 6 8 1015.0 1013.8 0.0
16/07:30pm 25.4 22.1 2.2 22 11.2 SE 9 11 5 6 1014.6 - 0.0
16/07:00pm 26.8 24.0 2.0 20 12.1 SE 6 7 3 4 1014.3 1013.1 0.0

Other Formats:

Comma delimited format used in spreadsheet applications
http://www.bom.gov.au/fwo/IDW60801/IDW60801.95317.axf

JavaScript Object Notation format (JSON) in row-major order
http://www.bom.gov.au/fwo/IDW60801/IDW60801.95317.json